createdAt,value
2018-11-14T00:11:59.440Z,75.80
2018-11-14T00:14:40.625Z,75.90
2018-11-14T00:17:14.757Z,75.90
2018-11-14T00:19:48.573Z,75.70
2018-11-14T00:22:19.681Z,75.40
2018-11-14T00:24:51.163Z,75.50
2018-11-14T00:30:00.578Z,75.70
2018-11-14T00:32:33.962Z,75.70
2018-11-14T00:35:08.119Z,75.40
2018-11-14T00:37:44.223Z,75.30
2018-11-14T00:40:16.837Z,75.10
2018-11-14T00:42:53.581Z,74.80
2018-11-14T00:45:28.462Z,74.50
2018-11-14T00:47:57.279Z,74.50
2018-11-14T00:50:32.053Z,74.50
2018-11-14T00:53:00.795Z,74.70
2018-11-14T01:12:09.534Z,77.10
2018-11-14T01:14:38.064Z,77.00
2018-11-14T01:17:06.819Z,76.90
2018-11-14T01:22:04.265Z,76.60
2018-11-14T01:24:32.915Z,76.80
2018-11-14T01:27:02.701Z,76.40
2018-11-14T01:32:00.981Z,76.80
2018-11-14T01:34:29.737Z,76.30
2018-11-14T01:36:58.409Z,76.30
2018-11-14T01:39:27.094Z,76.30
2018-11-14T01:41:55.857Z,76.40
2018-11-14T01:44:24.542Z,76.80
2018-11-14T01:46:53.113Z,76.50
2018-11-14T01:49:21.808Z,76.50
2018-11-14T01:51:50.564Z,76.30
2018-11-14T01:54:19.210Z,76.20
2018-11-14T01:56:47.988Z,76.30
2018-11-14T01:59:17.018Z,76.40
2018-11-14T02:01:45.666Z,76.20
2018-11-14T02:04:14.390Z,76.50
2018-11-14T02:06:50.303Z,76.40
2018-11-14T02:09:31.372Z,76.30
2018-11-14T02:12:06.014Z,76.20
2018-11-14T02:14:40.567Z,76.50
2018-11-14T02:19:58.387Z,76.80
2018-11-14T02:22:34.379Z,76.80
2018-11-14T02:25:13.781Z,76.50
2018-11-14T02:30:32.858Z,76.80
2018-11-14T02:38:13.493Z,77.80
2018-11-14T02:40:44.263Z,76.80
2018-11-14T02:43:13.569Z,76.70
2018-11-14T02:45:44.629Z,76.60
2018-11-14T02:48:13.901Z,76.60
2018-11-14T02:53:13.292Z,76.90
2018-11-14T02:55:44.976Z,76.60
2018-11-14T02:58:20.741Z,76.90
2018-11-14T03:00:55.677Z,76.60
2018-11-14T03:03:32.536Z,76.50
2018-11-14T03:11:25.314Z,76.40
2018-11-14T03:14:11.522Z,76.40
2018-11-14T03:16:45.726Z,76.50
2018-11-14T03:19:20.076Z,76.90
2018-11-14T03:26:47.748Z,77.20
2018-11-14T03:29:16.520Z,77.20
2018-11-14T03:34:21.423Z,77.40
2018-11-14T03:36:51.026Z,77.50
2018-11-14T03:39:19.589Z,77.50
2018-11-14T03:41:48.104Z,77.30
2018-11-14T03:44:16.778Z,77.40
2018-11-14T03:46:45.363Z,77.50
2018-11-14T03:49:19.623Z,77.40
2018-11-14T03:51:53.673Z,77.40
2018-11-14T03:59:48.948Z,77.60
2018-11-14T04:02:23.648Z,77.70
2018-11-14T04:04:54.760Z,77.70
2018-11-14T04:07:25.275Z,77.50
2018-11-14T04:09:58.624Z,77.70
2018-11-14T04:12:55.732Z,77.70
2018-11-14T04:18:21.064Z,77.80
2018-11-14T04:20:56.613Z,78.00
2018-11-14T04:23:40.058Z,78.10
2018-11-14T04:26:15.883Z,78.30
2018-11-14T04:28:44.710Z,78.10
2018-11-14T04:31:16.377Z,78.00
2018-11-14T04:33:45.176Z,78.00
2018-11-14T04:36:13.829Z,78.00
2018-11-14T04:38:43.441Z,78.00
2018-11-14T04:41:12.146Z,78.10
2018-11-14T04:43:41.084Z,78.00
2018-11-14T04:46:09.736Z,78.20
2018-11-14T04:48:38.417Z,77.90
2018-11-14T04:51:07.084Z,78.00
2018-11-14T04:53:35.801Z,78.00
2018-11-14T04:56:04.590Z,77.90
2018-11-14T05:01:01.756Z,78.20
2018-11-14T05:12:14.573Z,78.20
2018-11-14T05:14:43.284Z,78.40
2018-11-14T05:20:53.673Z,78.60
2018-11-14T05:23:23.620Z,79.10
2018-11-14T05:25:52.276Z,79.10
2018-11-14T05:28:20.957Z,79.20
2018-11-14T05:30:51.503Z,78.70
2018-11-14T05:36:28.431Z,78.30
2018-11-14T05:41:33.269Z,78.50
2018-11-14T05:49:21.141Z,78.50
2018-11-14T05:51:49.890Z,78.30
2018-11-14T05:54:21.478Z,78.20
2018-11-14T05:59:20.260Z,78.50
2018-11-14T06:01:48.823Z,78.30
2018-11-14T06:04:17.960Z,78.30
2018-11-14T06:06:46.516Z,78.20
2018-11-14T06:09:15.108Z,78.00
2018-11-14T06:11:43.949Z,77.60
2018-11-14T06:14:13.348Z,77.60
2018-11-14T06:16:42.613Z,77.70
2018-11-14T06:19:12.980Z,77.70
2018-11-14T06:21:44.370Z,77.90
2018-11-14T06:24:13.068Z,78.30
2018-11-14T06:29:10.242Z,78.20
2018-11-14T06:31:38.956Z,78.30
2018-11-14T06:34:07.553Z,79.10
2018-11-14T06:36:36.107Z,78.20
2018-11-14T06:39:08.302Z,78.00
2018-11-14T06:41:37.055Z,78.20
2018-11-14T06:46:34.521Z,78.20
2018-11-14T06:49:03.089Z,78.00
2018-11-14T06:54:00.424Z,78.30
2018-11-14T06:56:28.989Z,78.10
2018-11-14T06:58:58.472Z,78.10
2018-11-14T07:01:26.962Z,78.00
2018-11-14T07:03:55.795Z,77.90
2018-11-14T07:06:24.669Z,78.20
2018-11-14T07:08:53.634Z,79.00
2018-11-14T07:11:22.212Z,78.30
2018-11-14T07:13:50.945Z,78.20
2018-11-14T07:16:19.556Z,78.60
2018-11-14T07:18:48.046Z,78.20
2018-11-14T07:21:16.656Z,78.30
2018-11-14T07:23:45.238Z,78.20
2018-11-14T07:26:14.544Z,78.00
2018-11-14T07:28:43.694Z,78.50
2018-11-14T07:31:12.279Z,78.00
2018-11-14T07:33:40.963Z,77.90
2018-11-14T07:36:09.888Z,77.40
2018-11-14T07:38:39.934Z,77.50
2018-11-14T07:41:10.424Z,77.40
2018-11-14T07:43:39.739Z,77.20
2018-11-14T07:46:08.961Z,77.20
2018-11-14T07:48:38.071Z,77.60
2018-11-14T07:51:07.302Z,77.50
2018-11-14T07:53:36.075Z,77.90
2018-11-14T07:56:04.948Z,77.60
2018-11-14T07:58:33.717Z,76.70
2018-11-14T08:01:02.670Z,77.60
2018-11-14T08:03:31.885Z,77.70
2018-11-14T08:06:00.636Z,77.70
2018-11-14T08:08:30.807Z,77.60
2018-11-14T08:10:59.532Z,78.20
2018-11-14T08:18:29.902Z,78.90
2018-11-14T08:23:40.529Z,78.90
2018-11-14T08:26:09.275Z,79.20
2018-11-14T08:28:38.123Z,78.30
2018-11-14T08:31:07.677Z,78.30
2018-11-14T08:33:36.396Z,78.50
2018-11-14T08:36:05.308Z,78.50
2018-11-14T08:38:34.062Z,78.80
2018-11-14T08:41:02.754Z,78.90
2018-11-14T08:43:31.338Z,79.10
2018-11-14T08:45:59.812Z,79.00
2018-11-14T08:48:28.787Z,78.70
2018-11-14T08:50:57.437Z,78.50
2018-11-14T08:53:26.072Z,78.70
2018-11-14T08:55:54.731Z,78.40
2018-11-14T09:00:51.828Z,78.80
2018-11-14T09:03:20.421Z,78.60
2018-11-14T09:05:49.027Z,78.20
2018-11-14T09:08:17.671Z,78.20
2018-11-14T09:10:46.179Z,77.50
2018-11-14T09:13:15.883Z,77.30
2018-11-14T09:15:45.271Z,77.20
2018-11-14T09:18:13.967Z,77.70
2018-11-14T09:20:42.615Z,77.50
2018-11-14T09:23:11.133Z,77.10
2018-11-14T09:25:39.705Z,77.10
2018-11-14T09:28:08.571Z,77.10
2018-11-14T09:33:06.662Z,76.50
2018-11-14T09:35:35.124Z,76.80
2018-11-14T09:40:32.535Z,76.80
2018-11-14T09:43:01.223Z,76.50
2018-11-14T09:45:30.656Z,77.30
2018-11-14T09:47:59.204Z,76.20
2018-11-14T09:53:05.753Z,75.10
2018-11-14T09:55:34.400Z,75.70
2018-11-14T09:58:03.269Z,75.40
2018-11-14T10:00:33.172Z,75.80
2018-11-14T10:03:11.260Z,75.80
2018-11-14T10:05:39.850Z,76.10
2018-11-14T10:08:08.491Z,75.80
2018-11-14T10:10:36.987Z,75.80
2018-11-14T10:13:06.742Z,75.40
2018-11-14T10:15:35.492Z,74.90
2018-11-14T10:18:03.983Z,75.00
2018-11-14T10:20:32.484Z,74.90
2018-11-14T10:23:01.068Z,75.30
2018-11-14T10:25:29.623Z,75.60
2018-11-14T10:27:58.162Z,75.50
2018-11-14T10:30:28.047Z,75.60
2018-11-14T10:32:57.473Z,76.00
2018-11-14T10:35:26.740Z,76.50
2018-11-14T10:37:55.352Z,76.00
2018-11-14T10:40:27.101Z,75.80
2018-11-14T10:42:55.738Z,75.90
2018-11-14T10:47:53.768Z,76.00
2018-11-14T10:50:24.289Z,76.50
2018-11-14T10:52:52.896Z,76.60
2018-11-14T10:55:21.993Z,76.00
2018-11-14T10:57:50.661Z,75.80
2018-11-14T11:00:29.829Z,75.40
2018-11-14T11:03:04.684Z,74.70
2018-11-14T11:08:19.376Z,74.90
2018-11-14T11:11:53.344Z,74.90
2018-11-14T11:14:39.115Z,75.00
2018-11-14T11:17:13.111Z,74.80
2018-11-14T11:19:41.740Z,75.10
2018-11-14T11:22:10.426Z,75.30
2018-11-14T11:24:39.639Z,75.10
2018-11-14T11:27:08.358Z,74.50
2018-11-14T11:29:39.866Z,74.20
2018-11-14T11:32:08.568Z,74.50
2018-11-14T11:34:37.333Z,74.30
2018-11-14T11:37:06.254Z,74.20
2018-11-14T11:39:34.841Z,74.20
2018-11-14T11:42:03.401Z,74.10
2018-11-14T11:44:32.171Z,74.00
2018-11-14T11:49:32.309Z,73.10
2018-11-14T11:52:00.963Z,73.10
2018-11-14T11:54:29.621Z,73.00
2018-11-14T11:56:58.268Z,73.00
2018-11-14T11:59:26.927Z,73.10
2018-11-14T12:01:55.600Z,72.70
2018-11-14T12:04:24.609Z,72.50
2018-11-14T12:06:53.284Z,72.30
2018-11-14T12:11:57.412Z,72.30
2018-11-14T12:14:26.309Z,72.20
2018-11-14T12:16:55.207Z,72.10
2018-11-14T12:19:23.880Z,71.70
2018-11-14T12:21:52.609Z,71.60
2018-11-14T12:24:21.440Z,71.40
2018-11-14T12:26:50.073Z,71.10
2018-11-14T12:31:47.146Z,70.80
2018-11-14T12:36:45.321Z,70.80
2018-11-14T12:39:14.327Z,70.70
2018-11-14T12:44:11.092Z,70.50
2018-11-14T12:46:39.923Z,70.40
2018-11-14T12:49:08.780Z,70.20
2018-11-14T12:54:06.000Z,70.60
2018-11-14T12:56:35.075Z,70.50
2018-11-14T12:59:03.618Z,70.20
2018-11-14T13:04:00.441Z,70.40
2018-11-14T13:06:28.979Z,70.20
2018-11-14T13:08:57.891Z,70.00
2018-11-14T13:11:26.456Z,69.90
2018-11-14T13:13:55.044Z,69.50
2018-11-14T13:16:23.590Z,69.50
2018-11-14T13:18:52.163Z,69.50
2018-11-14T13:21:20.706Z,70.50
2018-11-14T13:23:49.200Z,69.70
2018-11-14T13:26:17.836Z,69.40
2018-11-14T13:28:46.496Z,69.40
2018-11-14T13:31:14.961Z,69.30
2018-11-14T13:33:43.562Z,69.30
2018-11-14T13:36:12.102Z,70.20
2018-11-14T13:38:40.845Z,69.20
2018-11-14T13:41:09.661Z,69.10
2018-11-14T13:43:38.488Z,68.90
2018-11-14T13:46:07.154Z,68.60
2018-11-14T13:48:35.954Z,68.70
2018-11-14T13:51:08.207Z,68.70
2018-11-14T13:53:36.779Z,68.70
2018-11-14T13:56:05.778Z,68.60
2018-11-14T13:58:34.352Z,68.40
2018-11-14T14:01:03.134Z,68.30
2018-11-14T14:04:56.433Z,68.00
2018-11-14T14:07:25.260Z,68.00
2018-11-14T14:12:23.138Z,68.50
2018-11-14T14:14:51.865Z,68.80
2018-11-14T14:17:20.517Z,68.80
2018-11-14T14:22:17.487Z,68.90
2018-11-14T14:24:46.184Z,68.70
2018-11-14T14:27:15.955Z,68.70
2018-11-14T14:29:44.577Z,68.60
2018-11-14T14:32:13.184Z,68.60
2018-11-14T14:34:41.691Z,68.70
2018-11-14T14:37:10.677Z,68.50
2018-11-14T14:39:41.695Z,68.60
2018-11-14T14:47:10.517Z,68.30
2018-11-14T14:49:41.716Z,68.20
2018-11-14T14:52:14.289Z,68.00
2018-11-14T14:54:42.996Z,68.00
2018-11-14T14:57:11.949Z,67.90
2018-11-14T14:59:41.003Z,68.30
2018-11-14T15:02:10.368Z,67.60
2018-11-14T15:07:08.194Z,67.90
2018-11-14T15:09:37.066Z,67.70
2018-11-14T15:14:35.840Z,67.60
2018-11-14T15:17:04.684Z,67.40
2018-11-14T15:19:33.397Z,67.30
2018-11-14T15:22:02.724Z,67.10
2018-11-14T15:24:36.230Z,67.30
2018-11-14T15:27:07.187Z,67.50
2018-11-14T15:29:36.990Z,67.60
2018-11-14T15:32:09.221Z,67.90
2018-11-14T15:34:38.894Z,68.00
2018-11-14T15:37:08.168Z,68.20
2018-11-14T15:39:37.580Z,68.30
2018-11-14T15:42:07.912Z,68.40
2018-11-14T15:44:40.706Z,68.60
2018-11-14T15:47:12.231Z,68.80
2018-11-14T15:49:41.754Z,68.80
2018-11-14T15:52:13.827Z,68.90
2018-11-14T15:54:43.920Z,69.00
2018-11-14T15:57:17.240Z,69.20
2018-11-14T15:59:47.567Z,69.40
2018-11-14T16:02:18.446Z,69.50
2018-11-14T16:04:52.229Z,69.70
2018-11-14T16:10:00.585Z,69.80
2018-11-14T16:12:29.172Z,69.80
2018-11-14T16:14:57.757Z,69.80
2018-11-14T16:17:26.846Z,70.00
2018-11-14T16:24:54.245Z,69.90
2018-11-14T16:27:22.825Z,70.00
2018-11-14T16:29:51.783Z,70.00
2018-11-14T16:32:23.711Z,70.10
2018-11-14T16:34:52.348Z,70.40
2018-11-14T16:39:50.484Z,70.70
2018-11-14T16:44:47.294Z,71.10
2018-11-14T16:47:17.096Z,71.20
2018-11-14T16:49:46.473Z,71.40
2018-11-14T16:52:15.544Z,71.50
2018-11-14T16:54:48.330Z,71.80
2018-11-14T16:57:19.457Z,71.80
2018-11-14T16:59:48.098Z,71.70
2018-11-14T17:04:45.102Z,72.00
2018-11-14T17:07:13.879Z,72.20
2018-11-14T17:09:42.568Z,72.40
2018-11-14T17:12:29.070Z,72.70
2018-11-14T17:14:57.951Z,72.90
2018-11-14T17:17:26.519Z,73.20
2018-11-14T17:19:55.347Z,73.10
2018-11-14T17:22:24.011Z,73.20
2018-11-14T17:24:52.820Z,73.30
2018-11-14T17:27:21.557Z,73.10
2018-11-14T17:32:14.381Z,73.30
2018-11-14T17:34:43.714Z,73.10
2018-11-14T17:37:12.398Z,74.00
2018-11-14T17:39:41.838Z,74.40
2018-11-14T17:42:12.481Z,74.00
2018-11-14T17:47:17.720Z,74.00
2018-11-14T17:49:46.263Z,73.70
2018-11-14T17:52:15.689Z,73.80
2018-11-14T17:54:44.384Z,73.70
2018-11-14T18:00:08.694Z,73.60
2018-11-14T18:02:40.038Z,73.10
2018-11-14T18:05:11.173Z,73.50
2018-11-14T18:07:41.144Z,73.70
2018-11-14T18:10:12.270Z,74.00
2018-11-14T18:12:41.105Z,74.00
2018-11-14T18:17:40.008Z,74.30
2018-11-14T18:22:39.328Z,74.20
2018-11-14T18:27:36.616Z,73.90
2018-11-14T18:30:07.864Z,74.00
2018-11-14T18:32:36.544Z,73.80
2018-11-14T18:35:06.763Z,73.90
2018-11-14T18:37:35.350Z,74.00
2018-11-14T18:40:04.115Z,74.10
2018-11-14T18:42:32.955Z,74.00
2018-11-14T18:45:01.914Z,74.00
2018-11-14T18:47:30.638Z,74.30
2018-11-14T18:49:59.667Z,74.00
2018-11-14T18:54:58.937Z,75.20
2018-11-14T18:57:27.547Z,74.90
2018-11-14T18:59:56.271Z,74.60
2018-11-14T19:02:26.144Z,74.70
2018-11-14T19:04:56.545Z,74.50
2018-11-14T19:07:25.244Z,74.50
2018-11-14T19:09:55.198Z,74.50
2018-11-14T19:12:23.898Z,74.40
2018-11-14T19:14:53.579Z,74.40
2018-11-14T19:17:28.217Z,74.60
2018-11-14T19:20:10.472Z,75.60
2018-11-14T19:22:46.507Z,74.80
2018-11-14T19:25:16.825Z,74.90
2018-11-14T19:27:53.291Z,76.10
2018-11-14T19:30:30.885Z,75.40
2018-11-14T19:33:00.723Z,75.10
2018-11-14T19:43:28.198Z,74.90
2018-11-14T19:45:59.624Z,74.80
2018-11-14T19:48:33.627Z,74.80
2018-11-14T19:53:45.542Z,74.80
2018-11-14T21:16:46.653Z,74.80
2018-11-14T21:19:15.606Z,84.00
2018-11-14T21:21:53.191Z,83.20
2018-11-14T21:24:28.517Z,82.20
2018-11-14T21:26:58.499Z,81.40
2018-11-14T21:29:28.670Z,81.00
2018-11-14T21:34:46.073Z,80.40
2018-11-14T21:41:44.591Z,80.30
2018-11-14T21:44:13.329Z,80.00
2018-11-14T21:46:42.062Z,80.50
2018-11-14T21:49:18.745Z,80.90
2018-11-14T21:52:06.515Z,80.90
2018-11-14T21:54:36.953Z,81.00
2018-11-14T22:02:59.809Z,80.50
2018-11-14T22:05:29.133Z,80.60
2018-11-14T22:07:59.777Z,81.00
2018-11-14T22:10:30.921Z,80.50
2018-11-14T22:13:02.698Z,80.20
2018-11-14T22:15:40.244Z,80.50
2018-11-14T22:18:09.177Z,80.50
2018-11-14T22:20:38.834Z,80.40
2018-11-14T22:37:00.447Z,80.80
2018-11-14T22:57:01.605Z,80.60
2018-11-14T22:59:34.496Z,80.20
2018-11-14T23:02:05.624Z,80.20
2018-11-14T23:04:35.878Z,80.00
2018-11-14T23:07:08.174Z,80.00
2018-11-14T23:09:38.590Z,80.10
2018-11-14T23:12:11.229Z,79.90
2018-11-14T23:14:41.341Z,79.70
2018-11-14T23:17:15.817Z,79.60
2018-11-14T23:19:46.802Z,79.30
2018-11-14T23:22:15.569Z,79.40
2018-11-14T23:24:44.279Z,79.60
2018-11-14T23:27:13.264Z,79.70
2018-11-14T23:29:42.138Z,79.70
2018-11-14T23:32:11.117Z,79.40
2018-11-14T23:34:43.996Z,79.30
2018-11-14T23:37:12.836Z,79.20
2018-11-14T23:39:41.517Z,79.30
2018-11-14T23:42:10.029Z,79.30
2018-11-14T23:44:38.825Z,79.50
2018-11-14T23:47:07.646Z,79.30
2018-11-14T23:49:36.435Z,79.20
2018-11-14T23:52:05.298Z,79.10
2018-11-14T23:54:35.133Z,79.30
2018-11-14T23:57:03.817Z,79.10
2018-11-14T23:59:32.572Z,79.10
